sensor_id;sensor_type;location;lat;lon;timestamp;pressure;altitude;pressure_sealevel;temperature;humidity
58785;BME280;44557;51.862;19.378;2023-03-11T00:01:30;96469.26;;;8.45;84.28
58785;BME280;44557;51.862;19.378;2023-03-11T00:03:31;96467.84;;;8.45;84.27
58785;BME280;44557;51.862;19.378;2023-03-11T00:05:34;96467.50;;;8.60;83.75
58785;BME280;44557;51.862;19.378;2023-03-11T00:07:36;96464.30;;;8.47;84.03
58785;BME280;44557;51.862;19.378;2023-03-11T00:09:39;96461.33;;;8.45;84.06
58785;BME280;44557;51.862;19.378;2023-03-11T00:11:40;96457.55;;;8.47;83.96
58785;BME280;44557;51.862;19.378;2023-03-11T00:13:41;96453.89;;;8.44;84.08
58785;BME280;44557;51.862;19.378;2023-03-11T00:15:44;96456.40;;;8.43;84.27
58785;BME280;44557;51.862;19.378;2023-03-11T00:17:46;96446.41;;;8.40;84.13
58785;BME280;44557;51.862;19.378;2023-03-11T00:19:48;96441.55;;;8.40;84.28
58785;BME280;44557;51.862;19.378;2023-03-11T00:21:49;96441.13;;;8.32;84.56
58785;BME280;44557;51.862;19.378;2023-03-11T00:23:49;96444.85;;;8.49;83.83
58785;BME280;44557;51.862;19.378;2023-03-11T00:25:50;96438.94;;;8.42;83.43
58785;BME280;44557;51.862;19.378;2023-03-11T00:27:52;96443.51;;;8.27;84.05
58785;BME280;44557;51.862;19.378;2023-03-11T00:29:53;96439.67;;;8.27;84.70
58785;BME280;44557;51.862;19.378;2023-03-11T00:31:54;96442.49;;;8.26;84.52
58785;BME280;44557;51.862;19.378;2023-03-11T00:33:55;96441.33;;;8.39;84.00
58785;BME280;44557;51.862;19.378;2023-03-11T00:35:58;96436.23;;;8.47;83.67
58785;BME280;44557;51.862;19.378;2023-03-11T00:38:05;96429.61;;;8.63;82.97
58785;BME280;44557;51.862;19.378;2023-03-11T00:40:10;96428.40;;;8.57;82.90
58785;BME280;44557;51.862;19.378;2023-03-11T00:42:11;96425.70;;;8.51;83.47
58785;BME280;44557;51.862;19.378;2023-03-11T00:44:12;96422.16;;;8.64;83.10
58785;BME280;44557;51.862;19.378;2023-03-11T00:46:13;96419.28;;;8.49;83.21
58785;BME280;44557;51.862;19.378;2023-03-11T00:48:14;96422.55;;;8.52;83.44
58785;BME280;44557;51.862;19.378;2023-03-11T00:50:21;96420.31;;;8.49;83.42
58785;BME280;44557;51.862;19.378;2023-03-11T00:52:22;96417.27;;;8.48;83.42
58785;BME280;44557;51.862;19.378;2023-03-11T00:54:23;96420.66;;;8.44;83.47
58785;BME280;44557;51.862;19.378;2023-03-11T00:56:23;96411.20;;;8.52;83.12
58785;BME280;44557;51.862;19.378;2023-03-11T00:58:24;96412.20;;;8.35;84.04
58785;BME280;44557;51.862;19.378;2023-03-11T01:00:29;96406.17;;;8.33;84.26
58785;BME280;44557;51.862;19.378;2023-03-11T01:02:30;96408.00;;;8.30;84.48
58785;BME280;44557;51.862;19.378;2023-03-11T01:04:30;96404.70;;;8.31;84.50
58785;BME280;44557;51.862;19.378;2023-03-11T01:06:31;96407.55;;;8.38;83.97
58785;BME280;44557;51.862;19.378;2023-03-11T01:08:32;96403.92;;;8.50;83.49
58785;BME280;44557;51.862;19.378;2023-03-11T01:10:34;96400.89;;;8.58;83.59
58785;BME280;44557;51.862;19.378;2023-03-11T01:12:35;96395.10;;;8.63;82.88
58785;BME280;44557;51.862;19.378;2023-03-11T01:14:36;96397.89;;;8.59;83.26
58785;BME280;44557;51.862;19.378;2023-03-11T01:16:37;96399.13;;;8.79;82.50
58785;BME280;44557;51.862;19.378;2023-03-11T01:18:38;96399.77;;;8.59;83.31
58785;BME280;44557;51.862;19.378;2023-03-11T01:20:39;96394.54;;;8.48;83.86
58785;BME280;44557;51.862;19.378;2023-03-11T01:22:40;96396.20;;;8.55;83.75
58785;BME280;44557;51.862;19.378;2023-03-11T01:24:41;96397.21;;;8.56;83.62
58785;BME280;44557;51.862;19.378;2023-03-11T01:26:42;96397.47;;;8.62;83.53
58785;BME280;44557;51.862;19.378;2023-03-11T01:28:43;96394.93;;;8.48;83.84
58785;BME280;44557;51.862;19.378;2023-03-11T01:30:44;96395.56;;;8.56;83.45
58785;BME280;44557;51.862;19.378;2023-03-11T01:32:45;96395.57;;;8.46;84.14
58785;BME280;44557;51.862;19.378;2023-03-11T01:34:46;96393.85;;;8.46;84.05
58785;BME280;44557;51.862;19.378;2023-03-11T01:36:47;96391.32;;;8.66;83.67
58785;BME280;44557;51.862;19.378;2023-03-11T01:38:47;96396.50;;;8.67;83.50
58785;BME280;44557;51.862;19.378;2023-03-11T01:40:50;96395.96;;;8.55;84.05
58785;BME280;44557;51.862;19.378;2023-03-11T01:42:51;96393.77;;;8.47;84.30
58785;BME280;44557;51.862;19.378;2023-03-11T01:44:52;96395.42;;;8.53;84.41
58785;BME280;44557;51.862;19.378;2023-03-11T01:48:56;96390.80;;;8.54;84.26
58785;BME280;44557;51.862;19.378;2023-03-11T01:50:58;96387.96;;;8.47;84.93
58785;BME280;44557;51.862;19.378;2023-03-11T01:53:01;96389.42;;;8.40;84.90
58785;BME280;44557;51.862;19.378;2023-03-11T01:55:02;96388.55;;;8.42;84.94
58785;BME280;44557;51.862;19.378;2023-03-11T01:57:05;96383.75;;;8.44;84.99
58785;BME280;44557;51.862;19.378;2023-03-11T01:59:11;96387.09;;;8.47;84.42
58785;BME280;44557;51.862;19.378;2023-03-11T02:01:13;96382.79;;;8.47;84.67
58785;BME280;44557;51.862;19.378;2023-03-11T02:03:20;96383.81;;;8.37;85.08
58785;BME280;44557;51.862;19.378;2023-03-11T02:05:23;96383.02;;;8.46;85.05
58785;BME280;44557;51.862;19.378;2023-03-11T02:07:24;96385.12;;;8.50;85.02
58785;BME280;44557;51.862;19.378;2023-03-11T02:09:26;96381.48;;;8.53;84.85
58785;BME280;44557;51.862;19.378;2023-03-11T02:11:29;96381.23;;;8.56;84.77
58785;BME280;44557;51.862;19.378;2023-03-11T02:13:32;96378.25;;;8.54;84.99
58785;BME280;44557;51.862;19.378;2023-03-11T02:15:35;96379.84;;;8.44;85.17
58785;BME280;44557;51.862;19.378;2023-03-11T02:17:37;96378.84;;;8.50;85.11
58785;BME280;44557;51.862;19.378;2023-03-11T02:19:50;96377.81;;;8.51;85.35
58785;BME280;44557;51.862;19.378;2023-03-11T02:21:56;96375.58;;;8.56;85.13
58785;BME280;44557;51.862;19.378;2023-03-11T02:24:19;96371.59;;;8.55;84.77
58785;BME280;44557;51.862;19.378;2023-03-11T02:26:30;96370.07;;;8.41;85.86
58785;BME280;44557;51.862;19.378;2023-03-11T02:28:34;96369.38;;;8.48;85.71
58785;BME280;44557;51.862;19.378;2023-03-11T02:30:40;96373.60;;;8.58;85.28
58785;BME280;44557;51.862;19.378;2023-03-11T02:32:43;96373.27;;;8.66;84.82
58785;BME280;44557;51.862;19.378;2023-03-11T02:34:44;96369.79;;;8.55;85.10
58785;BME280;44557;51.862;19.378;2023-03-11T02:36:45;96366.95;;;8.38;85.96
58785;BME280;44557;51.862;19.378;2023-03-11T02:38:46;96369.65;;;8.34;86.22
58785;BME280;44557;51.862;19.378;2023-03-11T02:40:59;96366.55;;;8.30;86.62
58785;BME280;44557;51.862;19.378;2023-03-11T02:43:02;96366.57;;;8.38;86.36
58785;BME280;44557;51.862;19.378;2023-03-11T02:45:09;96366.05;;;8.51;86.02
58785;BME280;44557;51.862;19.378;2023-03-11T02:47:10;96365.30;;;8.38;86.42
58785;BME280;44557;51.862;19.378;2023-03-11T02:49:11;96363.38;;;8.60;85.45
58785;BME280;44557;51.862;19.378;2023-03-11T02:51:13;96362.21;;;8.51;85.73
58785;BME280;44557;51.862;19.378;2023-03-11T02:53:14;96361.17;;;8.53;85.77
58785;BME280;44557;51.862;19.378;2023-03-11T02:55:15;96361.88;;;8.53;85.33
58785;BME280;44557;51.862;19.378;2023-03-11T02:57:17;96361.95;;;8.53;85.78
58785;BME280;44557;51.862;19.378;2023-03-11T02:59:18;96360.54;;;8.38;86.44
58785;BME280;44557;51.862;19.378;2023-03-11T03:01:19;96361.27;;;8.52;86.19
58785;BME280;44557;51.862;19.378;2023-03-11T03:03:20;96357.95;;;8.55;85.73
58785;BME280;44557;51.862;19.378;2023-03-11T03:05:22;96357.62;;;8.40;86.34
58785;BME280;44557;51.862;19.378;2023-03-11T03:07:22;96357.89;;;8.43;86.56
58785;BME280;44557;51.862;19.378;2023-03-11T03:09:23;96356.55;;;8.46;86.62
58785;BME280;44557;51.862;19.378;2023-03-11T03:11:24;96360.83;;;8.40;86.77
58785;BME280;44557;51.862;19.378;2023-03-11T03:13:26;96359.74;;;8.48;86.77
58785;BME280;44557;51.862;19.378;2023-03-11T03:15:27;96357.23;;;8.57;86.21
58785;BME280;44557;51.862;19.378;2023-03-11T03:17:28;96359.21;;;8.63;85.91
58785;BME280;44557;51.862;19.378;2023-03-11T03:19:29;96358.16;;;8.48;86.79
58785;BME280;44557;51.862;19.378;2023-03-11T03:21:30;96357.21;;;8.49;86.54
58785;BME280;44557;51.862;19.378;2023-03-11T03:23:31;96356.64;;;8.51;86.47
58785;BME280;44557;51.862;19.378;2023-03-11T03:25:34;96355.52;;;8.55;86.55
58785;BME280;44557;51.862;19.378;2023-03-11T03:27:36;96352.34;;;8.33;87.47
58785;BME280;44557;51.862;19.378;2023-03-11T03:29:37;96352.73;;;8.43;87.95
58785;BME280;44557;51.862;19.378;2023-03-11T03:31:38;96354.38;;;8.51;87.58
58785;BME280;44557;51.862;19.378;2023-03-11T03:33:39;96352.69;;;8.28;88.88
58785;BME280;44557;51.862;19.378;2023-03-11T03:35:42;96353.63;;;8.30;88.86
58785;BME280;44557;51.862;19.378;2023-03-11T03:37:44;96359.64;;;8.40;88.54
58785;BME280;44557;51.862;19.378;2023-03-11T03:39:44;96362.95;;;8.17;89.48
58785;BME280;44557;51.862;19.378;2023-03-11T03:41:45;96362.31;;;8.32;89.48
58785;BME280;44557;51.862;19.378;2023-03-11T03:43:46;96361.21;;;8.30;89.18
58785;BME280;44557;51.862;19.378;2023-03-11T03:46:04;96356.94;;;8.27;90.11
58785;BME280;44557;51.862;19.378;2023-03-11T03:48:05;96356.29;;;8.28;89.91
58785;BME280;44557;51.862;19.378;2023-03-11T03:50:08;96358.90;;;8.35;90.35
58785;BME280;44557;51.862;19.378;2023-03-11T03:52:09;96356.13;;;8.30;90.30
58785;BME280;44557;51.862;19.378;2023-03-11T03:54:10;96357.50;;;8.35;90.24
58785;BME280;44557;51.862;19.378;2023-03-11T03:56:14;96356.34;;;8.42;89.67
58785;BME280;44557;51.862;19.378;2023-03-11T03:58:15;96360.44;;;8.18;91.07
58785;BME280;44557;51.862;19.378;2023-03-11T04:00:17;96362.19;;;8.02;92.27
58785;BME280;44557;51.862;19.378;2023-03-11T04:02:17;96364.09;;;8.22;92.12
58785;BME280;44557;51.862;19.378;2023-03-11T04:04:18;96364.41;;;8.34;91.59
58785;BME280;44557;51.862;19.378;2023-03-11T04:06:22;96368.17;;;8.09;93.02
58785;BME280;44557;51.862;19.378;2023-03-11T04:08:23;96368.70;;;8.12;93.26
58785;BME280;44557;51.862;19.378;2023-03-11T04:10:24;96369.33;;;8.13;93.45
58785;BME280;44557;51.862;19.378;2023-03-11T04:12:25;96371.49;;;8.16;93.75
58785;BME280;44557;51.862;19.378;2023-03-11T04:14:26;96367.40;;;8.18;93.68
58785;BME280;44557;51.862;19.378;2023-03-11T04:16:27;96370.93;;;8.07;94.47
58785;BME280;44557;51.862;19.378;2023-03-11T04:18:28;96373.20;;;8.07;95.13
58785;BME280;44557;51.862;19.378;2023-03-11T04:20:29;96372.61;;;8.25;94.05
58785;BME280;44557;51.862;19.378;2023-03-11T04:22:30;96374.91;;;8.10;94.87
58785;BME280;44557;51.862;19.378;2023-03-11T04:24:31;96368.54;;;8.03;95.30
58785;BME280;44557;51.862;19.378;2023-03-11T04:26:32;96368.64;;;8.11;95.30
58785;BME280;44557;51.862;19.378;2023-03-11T04:28:33;96369.33;;;8.21;94.96
58785;BME280;44557;51.862;19.378;2023-03-11T04:30:33;96374.15;;;8.18;95.10
58785;BME280;44557;51.862;19.378;2023-03-11T04:32:34;96375.14;;;8.10;95.35
58785;BME280;44557;51.862;19.378;2023-03-11T04:34:36;96375.48;;;8.17;95.18
58785;BME280;44557;51.862;19.378;2023-03-11T04:36:36;96377.73;;;8.19;94.61
58785;BME280;44557;51.862;19.378;2023-03-11T04:38:38;96375.73;;;8.05;95.55
58785;BME280;44557;51.862;19.378;2023-03-11T04:40:39;96375.38;;;8.08;95.34
58785;BME280;44557;51.862;19.378;2023-03-11T04:42:40;96376.92;;;8.02;95.79
58785;BME280;44557;51.862;19.378;2023-03-11T04:44:40;96376.37;;;7.92;96.30
58785;BME280;44557;51.862;19.378;2023-03-11T04:46:41;96379.39;;;7.94;96.04
58785;BME280;44557;51.862;19.378;2023-03-11T04:48:42;96380.11;;;7.93;95.86
58785;BME280;44557;51.862;19.378;2023-03-11T04:50:43;96380.89;;;7.93;96.06
58785;BME280;44557;51.862;19.378;2023-03-11T04:52:44;96382.42;;;7.86;96.03
58785;BME280;44557;51.862;19.378;2023-03-11T04:54:45;96384.16;;;7.96;95.47
58785;BME280;44557;51.862;19.378;2023-03-11T04:56:46;96385.11;;;7.71;95.96
58785;BME280;44557;51.862;19.378;2023-03-11T04:58:47;96385.71;;;7.72;96.21
58785;BME280;44557;51.862;19.378;2023-03-11T05:00:48;96384.05;;;7.75;95.45
58785;BME280;44557;51.862;19.378;2023-03-11T05:02:49;96382.60;;;7.70;94.85
58785;BME280;44557;51.862;19.378;2023-03-11T05:04:50;96385.28;;;7.67;94.77
58785;BME280;44557;51.862;19.378;2023-03-11T05:06:51;96387.81;;;7.60;94.83
58785;BME280;44557;51.862;19.378;2023-03-11T05:08:52;96390.26;;;7.57;94.89
58785;BME280;44557;51.862;19.378;2023-03-11T05:10:53;96394.80;;;7.72;94.44
58785;BME280;44557;51.862;19.378;2023-03-11T05:12:54;96394.63;;;7.62;94.42
58785;BME280;44557;51.862;19.378;2023-03-11T05:14:55;96390.16;;;7.73;94.06
58785;BME280;44557;51.862;19.378;2023-03-11T05:16:56;96396.72;;;7.47;95.06
58785;BME280;44557;51.862;19.378;2023-03-11T05:18:57;96394.65;;;7.55;94.86
58785;BME280;44557;51.862;19.378;2023-03-11T05:20:58;96399.77;;;7.49;95.20
58785;BME280;44557;51.862;19.378;2023-03-11T05:22:59;96398.92;;;7.45;95.28
58785;BME280;44557;51.862;19.378;2023-03-11T05:24:59;96401.31;;;7.36;94.82
58785;BME280;44557;51.862;19.378;2023-03-11T05:27:01;96399.85;;;7.31;95.10
58785;BME280;44557;51.862;19.378;2023-03-11T05:29:02;96400.06;;;7.36;94.55
58785;BME280;44557;51.862;19.378;2023-03-11T05:31:07;96403.71;;;7.21;94.97
58785;BME280;44557;51.862;19.378;2023-03-11T05:33:08;96403.16;;;7.18;95.49
58785;BME280;44557;51.862;19.378;2023-03-11T05:35:09;96407.30;;;7.23;94.66
58785;BME280;44557;51.862;19.378;2023-03-11T05:37:10;96406.98;;;7.24;93.77
58785;BME280;44557;51.862;19.378;2023-03-11T05:39:12;96407.61;;;6.98;94.41
58785;BME280;44557;51.862;19.378;2023-03-11T05:41:13;96413.36;;;7.11;94.19
58785;BME280;44557;51.862;19.378;2023-03-11T05:43:14;96414.45;;;7.15;94.29
58785;BME280;44557;51.862;19.378;2023-03-11T05:45:14;96416.34;;;7.09;94.20
58785;BME280;44557;51.862;19.378;2023-03-11T05:47:16;96421.83;;;7.02;94.34
58785;BME280;44557;51.862;19.378;2023-03-11T05:49:17;96421.22;;;7.00;94.93
58785;BME280;44557;51.862;19.378;2023-03-11T05:51:20;96421.20;;;7.06;93.86
58785;BME280;44557;51.862;19.378;2023-03-11T05:53:22;96426.00;;;6.94;94.65
58785;BME280;44557;51.862;19.378;2023-03-11T05:55:22;96428.96;;;6.94;94.34
58785;BME280;44557;51.862;19.378;2023-03-11T05:57:23;96433.73;;;6.96;94.50
58785;BME280;44557;51.862;19.378;2023-03-11T05:59:25;96438.52;;;6.89;94.63
58785;BME280;44557;51.862;19.378;2023-03-11T06:01:26;96440.40;;;6.78;94.59
58785;BME280;44557;51.862;19.378;2023-03-11T06:03:27;96441.88;;;6.82;94.48
58785;BME280;44557;51.862;19.378;2023-03-11T06:05:27;96439.91;;;6.93;93.94
58785;BME280;44557;51.862;19.378;2023-03-11T06:07:28;96438.11;;;6.92;93.37
58785;BME280;44557;51.862;19.378;2023-03-11T06:09:29;96443.52;;;6.85;93.56
58785;BME280;44557;51.862;19.378;2023-03-11T06:11:30;96448.38;;;6.73;93.60
58785;BME280;44557;51.862;19.378;2023-03-11T06:13:31;96450.48;;;6.80;93.34
58785;BME280;44557;51.862;19.378;2023-03-11T06:15:33;96455.40;;;6.77;93.14
58785;BME280;44557;51.862;19.378;2023-03-11T06:17:34;96456.42;;;6.74;93.99
58785;BME280;44557;51.862;19.378;2023-03-11T06:19:35;96452.98;;;6.67;93.23
58785;BME280;44557;51.862;19.378;2023-03-11T06:21:36;96461.36;;;6.73;92.71
58785;BME280;44557;51.862;19.378;2023-03-11T06:23:37;96463.45;;;6.51;93.25
58785;BME280;44557;51.862;19.378;2023-03-11T06:25:38;96465.72;;;6.43;93.23
58785;BME280;44557;51.862;19.378;2023-03-11T06:27:39;96461.66;;;6.44;93.66
58785;BME280;44557;51.862;19.378;2023-03-11T06:29:40;96470.41;;;6.39;93.84
58785;BME280;44557;51.862;19.378;2023-03-11T06:31:40;96472.84;;;6.63;92.29
58785;BME280;44557;51.862;19.378;2023-03-11T06:33:42;96484.48;;;6.60;91.34
58785;BME280;44557;51.862;19.378;2023-03-11T06:35:43;96483.76;;;6.29;91.92
58785;BME280;44557;51.862;19.378;2023-03-11T06:37:44;96493.32;;;6.06;92.94
58785;BME280;44557;51.862;19.378;2023-03-11T06:39:45;96493.58;;;6.17;92.97
58785;BME280;44557;51.862;19.378;2023-03-11T06:41:46;96487.57;;;6.26;91.42
58785;BME280;44557;51.862;19.378;2023-03-11T06:43:46;96499.18;;;6.15;91.72
58785;BME280;44557;51.862;19.378;2023-03-11T06:45:47;96498.67;;;6.29;90.88
58785;BME280;44557;51.862;19.378;2023-03-11T06:47:48;96497.54;;;6.11;90.98
58785;BME280;44557;51.862;19.378;2023-03-11T06:49:50;96504.52;;;5.96;91.79
58785;BME280;44557;51.862;19.378;2023-03-11T06:51:50;96506.10;;;6.02;91.64
58785;BME280;44557;51.862;19.378;2023-03-11T06:53:52;96505.27;;;6.15;91.32
58785;BME280;44557;51.862;19.378;2023-03-11T06:56:04;96511.68;;;6.16;90.85
58785;BME280;44557;51.862;19.378;2023-03-11T06:58:05;96516.52;;;6.15;90.60
58785;BME280;44557;51.862;19.378;2023-03-11T07:00:07;96523.63;;;6.17;90.58
58785;BME280;44557;51.862;19.378;2023-03-11T07:02:12;96519.16;;;6.12;90.56
58785;BME280;44557;51.862;19.378;2023-03-11T07:04:14;96532.50;;;6.02;90.42
58785;BME280;44557;51.862;19.378;2023-03-11T07:06:17;96528.52;;;5.88;91.18
58785;BME280;44557;51.862;19.378;2023-03-11T07:08:18;96538.95;;;6.01;90.88
58785;BME280;44557;51.862;19.378;2023-03-11T07:10:20;96543.05;;;6.07;90.52
58785;BME280;44557;51.862;19.378;2023-03-11T07:12:21;96542.13;;;5.91;90.54
58785;BME280;44557;51.862;19.378;2023-03-11T07:14:22;96543.76;;;5.90;90.68
58785;BME280;44557;51.862;19.378;2023-03-11T07:16:29;96546.90;;;5.64;91.20
58785;BME280;44557;51.862;19.378;2023-03-11T07:18:30;96548.52;;;5.61;91.18
58785;BME280;44557;51.862;19.378;2023-03-11T07:20:32;96547.13;;;5.65;89.92
58785;BME280;44557;51.862;19.378;2023-03-11T07:22:33;96547.92;;;5.52;89.21
58785;BME280;44557;51.862;19.378;2023-03-11T07:24:33;96557.50;;;5.50;88.50
58785;BME280;44557;51.862;19.378;2023-03-11T07:26:35;96562.05;;;5.42;88.01
58785;BME280;44557;51.862;19.378;2023-03-11T07:28:36;96563.88;;;5.22;87.88
58785;BME280;44557;51.862;19.378;2023-03-11T07:30:38;96569.39;;;5.29;88.19
58785;BME280;44557;51.862;19.378;2023-03-11T07:32:40;96569.20;;;5.23;88.03
58785;BME280;44557;51.862;19.378;2023-03-11T07:34:41;96572.88;;;5.15;87.58
58785;BME280;44557;51.862;19.378;2023-03-11T07:36:42;96576.82;;;5.10;87.67
58785;BME280;44557;51.862;19.378;2023-03-11T07:38:43;96579.95;;;5.00;88.61
58785;BME280;44557;51.862;19.378;2023-03-11T07:40:45;96575.79;;;5.19;87.54
58785;BME280;44557;51.862;19.378;2023-03-11T07:42:46;96581.73;;;5.00;87.89
58785;BME280;44557;51.862;19.378;2023-03-11T07:44:49;96583.02;;;4.97;87.84
58785;BME280;44557;51.862;19.378;2023-03-11T07:46:51;96590.70;;;4.83;88.67
58785;BME280;44557;51.862;19.378;2023-03-11T07:48:53;96593.33;;;4.89;89.00
58785;BME280;44557;51.862;19.378;2023-03-11T07:51:15;96593.30;;;4.96;88.98
58785;BME280;44557;51.862;19.378;2023-03-11T07:53:16;96597.35;;;4.95;88.86
58785;BME280;44557;51.862;19.378;2023-03-11T07:55:17;96599.35;;;5.01;88.16
58785;BME280;44557;51.862;19.378;2023-03-11T07:57:18;96606.17;;;4.88;88.52
58785;BME280;44557;51.862;19.378;2023-03-11T07:59:18;96608.11;;;4.89;88.07
58785;BME280;44557;51.862;19.378;2023-03-11T08:01:22;96607.08;;;4.85;88.20
58785;BME280;44557;51.862;19.378;2023-03-11T08:03:23;96608.21;;;4.89;88.37
58785;BME280;44557;51.862;19.378;2023-03-11T08:05:24;96620.02;;;4.86;88.30
58785;BME280;44557;51.862;19.378;2023-03-11T08:07:25;96617.75;;;4.85;88.84
58785;BME280;44557;51.862;19.378;2023-03-11T08:09:26;96626.54;;;4.83;88.69
58785;BME280;44557;51.862;19.378;2023-03-11T08:11:27;96629.21;;;4.93;88.22
58785;BME280;44557;51.862;19.378;2023-03-11T08:13:28;96629.90;;;4.69;88.63
58785;BME280;44557;51.862;19.378;2023-03-11T08:15:29;96638.50;;;4.63;88.86
58785;BME280;44557;51.862;19.378;2023-03-11T08:17:30;96641.95;;;4.67;88.99
58785;BME280;44557;51.862;19.378;2023-03-11T08:19:30;96646.92;;;4.64;89.11
58785;BME280;44557;51.862;19.378;2023-03-11T08:21:31;96648.96;;;4.51;89.94
58785;BME280;44557;51.862;19.378;2023-03-11T08:23:33;96651.80;;;4.62;89.56
58785;BME280;44557;51.862;19.378;2023-03-11T08:25:37;96659.19;;;4.68;89.06
58785;BME280;44557;51.862;19.378;2023-03-11T08:27:38;96657.77;;;4.51;89.98
58785;BME280;44557;51.862;19.378;2023-03-11T08:29:39;96660.37;;;4.55;89.40
58785;BME280;44557;51.862;19.378;2023-03-11T08:31:40;96662.48;;;4.49;89.39
58785;BME280;44557;51.862;19.378;2023-03-11T08:33:43;96672.76;;;4.48;89.58
58785;BME280;44557;51.862;19.378;2023-03-11T08:35:44;96677.02;;;4.62;89.39
58785;BME280;44557;51.862;19.378;2023-03-11T08:37:45;96684.54;;;4.57;89.56
58785;BME280;44557;51.862;19.378;2023-03-11T08:39:46;96681.17;;;4.55;89.81
58785;BME280;44557;51.862;19.378;2023-03-11T08:41:46;96688.91;;;4.52;89.90
58785;BME280;44557;51.862;19.378;2023-03-11T08:43:47;96695.35;;;4.55;90.03
58785;BME280;44557;51.862;19.378;2023-03-11T08:45:48;96702.33;;;4.53;90.27
58785;BME280;44557;51.862;19.378;2023-03-11T08:47:49;96711.59;;;4.79;89.76
58785;BME280;44557;51.862;19.378;2023-03-11T08:49:50;96711.96;;;4.78;89.72
58785;BME280;44557;51.862;19.378;2023-03-11T08:51:51;96717.02;;;4.51;89.80
58785;BME280;44557;51.862;19.378;2023-03-11T08:53:52;96732.40;;;4.29;90.12
58785;BME280;44557;51.862;19.378;2023-03-11T08:55:53;96739.61;;;4.39;88.56
58785;BME280;44557;51.862;19.378;2023-03-11T08:57:54;96750.73;;;4.21;88.92
58785;BME280;44557;51.862;19.378;2023-03-11T08:59:56;96755.34;;;4.05;89.10
58785;BME280;44557;51.862;19.378;2023-03-11T09:01:58;96761.91;;;4.02;88.52
58785;BME280;44557;51.862;19.378;2023-03-11T09:03:58;96756.35;;;4.05;88.52
58785;BME280;44557;51.862;19.378;2023-03-11T09:06:04;96767.17;;;3.90;87.88
58785;BME280;44557;51.862;19.378;2023-03-11T09:08:05;96783.21;;;3.80;87.95
58785;BME280;44557;51.862;19.378;2023-03-11T09:10:07;96787.67;;;3.82;87.64
58785;BME280;44557;51.862;19.378;2023-03-11T09:12:09;96790.85;;;3.85;87.50
58785;BME280;44557;51.862;19.378;2023-03-11T09:14:13;96798.19;;;3.74;87.41
58785;BME280;44557;51.862;19.378;2023-03-11T09:16:17;96798.33;;;3.77;87.61
58785;BME280;44557;51.862;19.378;2023-03-11T09:18:18;96815.20;;;3.81;86.61
58785;BME280;44557;51.862;19.378;2023-03-11T09:20:19;96814.39;;;3.70;87.04
58785;BME280;44557;51.862;19.378;2023-03-11T09:22:20;96819.95;;;3.72;86.54
58785;BME280;44557;51.862;19.378;2023-03-11T09:24:21;96824.80;;;3.66;86.92
58785;BME280;44557;51.862;19.378;2023-03-11T09:26:22;96837.31;;;3.47;88.02
58785;BME280;44557;51.862;19.378;2023-03-11T09:28:31;96843.18;;;3.62;88.03
58785;BME280;44557;51.862;19.378;2023-03-11T09:30:32;96854.30;;;3.54;87.59
58785;BME280;44557;51.862;19.378;2023-03-11T09:32:33;96848.67;;;3.47;87.39
58785;BME280;44557;51.862;19.378;2023-03-11T09:34:33;96853.89;;;3.34;86.92
58785;BME280;44557;51.862;19.378;2023-03-11T09:36:35;96869.27;;;3.34;87.39
58785;BME280;44557;51.862;19.378;2023-03-11T09:38:36;96867.44;;;3.36;87.17
58785;BME280;44557;51.862;19.378;2023-03-11T09:43:21;96881.72;;;3.48;86.40
58785;BME280;44557;51.862;19.378;2023-03-11T09:45:38;96893.67;;;3.27;88.18
58785;BME280;44557;51.862;19.378;2023-03-11T09:50:20;96903.97;;;3.28;87.35
58785;BME280;44557;51.862;19.378;2023-03-11T09:52:51;96904.31;;;3.26;88.19
58785;BME280;44557;51.862;19.378;2023-03-11T09:54:52;96912.45;;;3.29;86.94
58785;BME280;44557;51.862;19.378;2023-03-11T09:56:53;96917.48;;;3.02;88.99
58785;BME280;44557;51.862;19.378;2023-03-11T09:59:07;96925.85;;;2.97;90.10
58785;BME280;44557;51.862;19.378;2023-03-11T10:01:20;96932.81;;;3.06;89.63
58785;BME280;44557;51.862;19.378;2023-03-11T10:03:29;96933.57;;;3.08;88.36
58785;BME280;44557;51.862;19.378;2023-03-11T10:05:32;96929.47;;;2.91;88.59
58785;BME280;44557;51.862;19.378;2023-03-11T10:07:39;96940.42;;;2.96;89.14
58785;BME280;44557;51.862;19.378;2023-03-11T10:09:49;96948.86;;;2.83;89.51
58785;BME280;44557;51.862;19.378;2023-03-11T10:12:13;96957.09;;;3.04;88.74
58785;BME280;44557;51.862;19.378;2023-03-11T10:14:47;96955.43;;;2.79;88.53
58785;BME280;44557;51.862;19.378;2023-03-11T10:21:55;96996.80;;;2.80;88.01
58785;BME280;44557;51.862;19.378;2023-03-11T10:24:18;97003.05;;;2.82;87.88
58785;BME280;44557;51.862;19.378;2023-03-11T10:26:40;97013.63;;;2.69;88.50
58785;BME280;44557;51.862;19.378;2023-03-11T10:28:51;97017.31;;;2.68;89.32
58785;BME280;44557;51.862;19.378;2023-03-11T10:31:03;97020.89;;;2.72;89.50
58785;BME280;44557;51.862;19.378;2023-03-11T10:35:35;97034.38;;;2.67;89.54
58785;BME280;44557;51.862;19.378;2023-03-11T10:37:39;97038.88;;;2.83;90.04
58785;BME280;44557;51.862;19.378;2023-03-11T10:39:45;97042.17;;;2.59;90.02
58785;BME280;44557;51.862;19.378;2023-03-11T10:41:56;97052.17;;;2.87;88.14
58785;BME280;44557;51.862;19.378;2023-03-11T10:44:05;97051.48;;;2.74;88.19
58785;BME280;44557;51.862;19.378;2023-03-11T10:46:18;97062.98;;;2.49;88.60
58785;BME280;44557;51.862;19.378;2023-03-11T10:48:21;97068.41;;;2.81;88.40
58785;BME280;44557;51.862;19.378;2023-03-11T10:50:22;97083.10;;;2.74;87.94
58785;BME280;44557;51.862;19.378;2023-03-11T10:52:22;97078.66;;;2.83;87.85
58785;BME280;44557;51.862;19.378;2023-03-11T10:54:31;97074.89;;;2.69;87.21
58785;BME280;44557;51.862;19.378;2023-03-11T10:56:38;97081.52;;;2.67;86.66
58785;BME280;44557;51.862;19.378;2023-03-11T10:58:47;97094.36;;;2.71;86.47
58785;BME280;44557;51.862;19.378;2023-03-11T11:01:14;97104.94;;;2.66;87.24
58785;BME280;44557;51.862;19.378;2023-03-11T11:03:21;97116.06;;;2.76;87.62
58785;BME280;44557;51.862;19.378;2023-03-11T11:05:31;97119.11;;;2.68;87.82